• Join FlightAware (Why Join?)
  • Login
  • US Flag 
08:34PM EDT


 

Airport Tracker/Info


-or-


 

Live Flight TrackerFlight Track Log ✈ JZA8279 ✈ 01-May-2013 ✈ CYPR - CYVR

Flight Track Log - Related Links

Times and Time Zones

All times are in EDT time to prevent confusion due to time zone crossing. See the JZA8279 flight status page for this flight to view local times or setup timezone preferences in your user account.

Time Position Orientation Groundspeed Altitude Reporting Facility
EDT Latitude Longitude Course Direction KTS MPH feet Rate Location/Type
02:07PM 54.2333 -130.4500 135° Southeast 100 115 2,600  Level Vancouver Center
02:08PM 54.2167 -130.4500 180° South 100 115 4,000 1,440 Climbing Vancouver Center
02:09PM 54.1833 -130.3833 130° Southeast 130 150 5,500 1,500 Climbing Vancouver Center
02:10PM 54.1500 -130.3333 139° Southeast 160 184 7,000 1,440 Climbing Vancouver Center
02:11PM 54.1333 -130.3000 130° Southeast 160 184 8,400 1,260 Climbing Vancouver Center
02:12PM 53.9104 -129.8175 135° Southeast  Level FlightAware Approximate
02:12PM 54.1000 -130.2333 130° Southeast 180 207 9,600  Level Vancouver Center
02:13PM 54.0500 -130.1333 130° Southeast 210 242 10,900 1,380 Climbing Vancouver Center
02:14PM 54.0000 -130.0833 150° Southeast 210 242 12,400 1,440 Climbing Vancouver Center
02:15PM 53.9667 -130.0167 130° Southeast 210 242 13,800 1,080 Climbing Vancouver Center
02:16PM 53.9333 -129.9167 119° Southeast 210 242 14,600 840 Climbing Vancouver Center
02:17PM 53.8833 -129.8667 149° Southeast 230 265 15,500 900 Climbing Vancouver Center
02:18PM 53.8333 -129.7667 130° Southeast 230 265 16,400 900 Climbing Vancouver Center
02:19PM 53.7833 -129.7000 142° Southeast 240 276 17,300 720 Climbing Vancouver Center
02:20PM 53.7333 -129.6167 135° Southeast 240 276 17,900 660 Climbing Vancouver Center
02:21PM 53.7000 -129.5500 130° Southeast 240 276 18,700 780 Climbing Vancouver Center
02:22PM 53.6500 -129.4667 135° Southeast 250 288 19,500 720 Climbing Vancouver Center
02:23PM 53.6000 -129.3667 130° Southeast 250 288 20,200 720 Climbing Vancouver Center
02:24PM 53.5500 -129.3000 142° Southeast 260 299 21,000 780 Climbing Vancouver Center
02:25PM 53.5000 -129.2167 135° Southeast 260 299 21,800 720 Climbing Vancouver Center
02:26PM 53.4500 -129.1167 130° Southeast 260 299 22,500 600 Climbing Vancouver Center
02:27PM 53.4000 -129.0333 135° Southeast 250 288 23,000 240 Climbing Vancouver Center
02:28PM 53.3333 -128.9500 143° Southeast 270 311 23,000  Level Vancouver Center
02:29PM 53.2833 -128.8500 130° Southeast 290 334 23,000  Level Vancouver Center
02:30PM 53.2333 -128.7667 135° Southeast 300 345 23,000  Level Vancouver Center
02:31PM 53.1667 -128.6500 134° Southeast 300 345 23,000  Level Vancouver Center
02:32PM 53.1000 -128.5500 138° Southeast 310 357 23,000  Level Vancouver Center
02:33PM 53.0333 -128.4667 143° Southeast 310 357 23,000  Level Vancouver Center
02:34PM 53.0000 -128.3667 119° Southeast 300 345 23,000  Level Vancouver Center
02:35PM 52.9167 -128.2500 140° Southeast 320 368 23,000  Level Vancouver Center
02:36PM 52.8500 -128.1667 143° Southeast 310 357 23,000  Level Vancouver Center
02:37PM 52.8000 -128.0500 125° Southeast 310 357 23,000  Level Vancouver Center
02:38PM 52.7167 -127.9667 149° Southeast 310 357 23,000  Level Vancouver Center
02:39PM 52.6833 -127.8667 119° Southeast 310 357 23,000  Level Vancouver Center
02:40PM 52.6000 -127.7500 140° Southeast 310 357 23,000  Level Vancouver Center
02:41PM 52.5500 -127.6667 135° Southeast 320 368 23,000  Level Vancouver Center
02:42PM 52.4667 -127.5500 140° Southeast 320 368 23,000  Level Vancouver Center
02:43PM 52.4000 -127.4667 143° Southeast 320 368 23,000  Level Vancouver Center
02:44PM 52.3333 -127.3500 133° Southeast 320 368 23,000  Level Vancouver Center
02:45PM 52.2833 -127.2667 134° Southeast 320 368 23,000  Level Vancouver Center
02:46PM 52.2167 -127.1833 143° Southeast 320 368 23,000  Level Vancouver Center
02:47PM 52.1333 -127.1167 154° Southeast 300 345 23,000  Level Vancouver Center
02:48PM 52.0667 -127.0833 163° South 300 345 23,000  Level Vancouver Center
02:49PM 51.9833 -127.0500 166° South 300 345 23,000  Level Vancouver Center
02:50PM 51.9000 -127.0500 180° South 300 345 23,000  Level Vancouver Center
02:51PM 51.8167 -127.0167 166° South 300 345 23,000  Level Vancouver Center
02:52PM 51.7333 -126.9833 166° South 300 345 23,000  Level Vancouver Center
02:53PM 51.6500 -126.9667 173° South 300 345 23,000  Level Vancouver Center
02:54PM 51.5667 -126.9333 166° South 300 345 23,000  Level Vancouver Center
02:55PM 51.4833 -126.9167 173° South 300 345 23,000  Level Vancouver Center
02:56PM 51.4167 -126.8000 132° Southeast 320 368 23,000  Level Vancouver Center
02:57PM 51.3667 -126.6833 124° Southeast 320 368 23,000  Level Vancouver Center
02:58PM 51.3167 -126.5833 129° Southeast 320 368 23,000  Level Vancouver Center
02:59PM 51.2500 -126.4667 132° Southeast 320 368 23,000  Level Vancouver Center
03:00PM 51.2000 -126.3500 124° Southeast 320 368 23,000  Level Vancouver Center
03:01PM 51.1333 -126.2500 137° Southeast 320 368 23,000  Level Vancouver Center
03:02PM 51.0833 -126.1333 124° Southeast 320 368 23,000  Level Vancouver Center
03:03PM 51.0167 -126.0333 137° Southeast 320 368 23,000  Level Vancouver Center
03:04PM 50.9667 -125.9167 124° Southeast 320 368 23,000  Level Vancouver Center
03:05PM 50.9167 -125.8167 128° Southeast 320 368 23,000  Level Vancouver Center
03:06PM 50.8667 -125.7000 124° Southeast 320 368 23,000  Level Vancouver Center
03:07PM 50.8000 -125.5667 128° Southeast 320 368 23,000  Level Vancouver Center
03:08PM 50.7500 -125.4833 133° Southeast 320 368 23,000  Level Vancouver Center
03:09PM 50.6833 -125.3500 128° Southeast 320 368 23,000  Level Vancouver Center
03:10PM 50.6333 -125.2500 128° Southeast 320 368 23,000  Level Vancouver Center
03:11PM 50.5667 -125.1333 132° Southeast 320 368 23,000  Level Vancouver Center
03:12PM 50.5167 -125.0333 128° Southeast 320 368 23,000  Level Vancouver Center
03:13PM 50.4500 -124.9333 136° Southeast 320 368 23,000  Level Vancouver Center
03:14PM 50.4000 -124.8167 124° Southeast 320 368 23,000  Level Vancouver Center
03:15PM 50.3333 -124.7167 136° Southeast 320 368 23,000  Level Vancouver Center
03:16PM 50.2833 -124.6167 128° Southeast 330 380 23,000  Level Vancouver Center
03:17PM 50.2167 -124.5000 132° Southeast 320 368 23,000  Level Vancouver Center
03:18PM 50.1500 -124.4000 136° Southeast 330 380 23,000 -600 Level Vancouver Center
03:19PM 50.1000 -124.2667 120° Southeast 330 380 21,800 -1,560 Descending Vancouver Center
03:20PM 50.0333 -124.1667 136° Southeast 360 414 19,900 -1,920 Descending Vancouver Center
03:21PM 49.9667 -124.0667 136° Southeast 360 414 18,000 -1,740 Descending Vancouver Center
03:22PM 49.9000 -123.9333 128° Southeast 360 414 16,500 -1,680 Descending Vancouver Center
03:23PM 49.8500 -123.8167 124° Southeast 320 368 14,700 -1,800 Descending Vancouver Center
03:24PM 49.7833 -123.7167 136° Southeast 300 345 13,000 -1,680 Descending Vancouver Center
03:25PM 49.7167 -123.6667 154° Southeast 280 322 11,400 -1,500 Descending Vancouver Center
03:26PM 49.6500 -123.6167 154° Southeast 300 345 10,000 -720 Descending Vancouver Center
03:27PM 49.5833 -123.5667 154° Southeast 280 322 10,000  Level Vancouver Center
03:28PM 49.5167 -123.5167 154° Southeast 280 322 10,000  Level Vancouver Center
03:29PM 49.4500 -123.4667 154° Southeast 270 311 10,000  Level Vancouver Center
03:30PM 49.3833 -123.4167 154° Southeast 270 311 10,000  Level Vancouver Center
03:31PM 49.3167 -123.3333 141° Southeast 270 311 10,000 -120 Level Vancouver Center
03:32PM 49.2500 -123.2833 154° Southeast 270 311 9,800 -720 Descending Vancouver Center
03:33PM 49.2500 -123.1667 90° East 270 311 8,600 -1,680 Descending Vancouver Center
03:34PM 49.2333 -123.0500 102° East 250 288 6,500 -2,100 Descending Vancouver Center
03:35PM 49.2333 -122.9500 90° East 230 265 4,500 -1,800 Descending Vancouver Center
03:36PM 49.2000 -122.9000 136° Southeast 210 242 3,000 -900 Descending Vancouver Center
03:37PM 49.1667 -122.9500 224° Southwest 200 230 2,800 -600 Descending Vancouver Center
03:38PM 49.1667 -123.0333 270° West 200 230 1,800 -900 Descending Vancouver Center
03:39PM 49.1667 -123.1167 270° West 160 184 1,100 -720 Descending Vancouver Center